sensor_id;sensor_type;location;lat;lon;timestamp;P1;durP1;ratioP1;P2;durP2;ratioP2
29200;SDS011;16244;51.956;12.980;2023-04-06T00:01:02;2.63;;;2.37;;
29200;SDS011;16244;51.956;12.980;2023-04-06T00:03:29;2.80;;;2.57;;
29200;SDS011;16244;51.956;12.980;2023-04-06T00:05:57;2.47;;;2.27;;
29200;SDS011;16244;51.956;12.980;2023-04-06T00:08:25;2.50;;;2.30;;
29200;SDS011;16244;51.956;12.980;2023-04-06T00:10:53;2.70;;;2.60;;
29200;SDS011;16244;51.956;12.980;2023-04-06T00:13:21;2.80;;;2.40;;
29200;SDS011;16244;51.956;12.980;2023-04-06T00:15:48;4.30;;;2.40;;
29200;SDS011;16244;51.956;12.980;2023-04-06T00:18:16;2.03;;;1.93;;
29200;SDS011;16244;51.956;12.980;2023-04-06T00:20:43;2.17;;;2.00;;
29200;SDS011;16244;51.956;12.980;2023-04-06T00:23:16;4.83;;;2.70;;
29200;SDS011;16244;51.956;12.980;2023-04-06T00:25:48;2.30;;;2.10;;
29200;SDS011;16244;51.956;12.980;2023-04-06T00:28:17;2.70;;;2.20;;
29200;SDS011;16244;51.956;12.980;2023-04-06T00:30:50;3.70;;;2.53;;
29200;SDS011;16244;51.956;12.980;2023-04-06T00:33:20;2.73;;;2.20;;
29200;SDS011;16244;51.956;12.980;2023-04-06T00:35:48;2.77;;;2.67;;
29200;SDS011;16244;51.956;12.980;2023-04-06T00:38:16;2.30;;;1.77;;
29200;SDS011;16244;51.956;12.980;2023-04-06T00:40:44;2.77;;;2.63;;
29200;SDS011;16244;51.956;12.980;2023-04-06T00:43:11;2.90;;;2.63;;
29200;SDS011;16244;51.956;12.980;2023-04-06T00:45:41;2.80;;;2.60;;
29200;SDS011;16244;51.956;12.980;2023-04-06T00:48:09;2.93;;;2.70;;
29200;SDS011;16244;51.956;12.980;2023-04-06T00:50:36;2.80;;;2.70;;
29200;SDS011;16244;51.956;12.980;2023-04-06T00:53:04;3.17;;;3.10;;
29200;SDS011;16244;51.956;12.980;2023-04-06T00:55:31;3.07;;;2.77;;
29200;SDS011;16244;51.956;12.980;2023-04-06T00:57:58;2.77;;;2.20;;
29200;SDS011;16244;51.956;12.980;2023-04-06T01:00:26;2.20;;;2.20;;
29200;SDS011;16244;51.956;12.980;2023-04-06T01:02:55;1.77;;;1.77;;
29200;SDS011;16244;51.956;12.980;2023-04-06T01:05:22;2.70;;;2.60;;
29200;SDS011;16244;51.956;12.980;2023-04-06T01:07:50;2.07;;;2.07;;
29200;SDS011;16244;51.956;12.980;2023-04-06T01:10:24;2.60;;;2.60;;
29200;SDS011;16244;51.956;12.980;2023-04-06T01:12:52;2.90;;;2.80;;
29200;SDS011;16244;51.956;12.980;2023-04-06T01:15:19;2.13;;;2.03;;
29200;SDS011;16244;51.956;12.980;2023-04-06T01:17:48;2.43;;;2.30;;
29200;SDS011;16244;51.956;12.980;2023-04-06T01:20:17;2.33;;;2.30;;
29200;SDS011;16244;51.956;12.980;2023-04-06T01:22:46;3.17;;;3.07;;
29200;SDS011;16244;51.956;12.980;2023-04-06T01:25:13;2.90;;;2.80;;
29200;SDS011;16244;51.956;12.980;2023-04-06T01:27:41;3.27;;;3.07;;
29200;SDS011;16244;51.956;12.980;2023-04-06T01:30:09;2.37;;;2.27;;
29200;SDS011;16244;51.956;12.980;2023-04-06T01:32:36;2.90;;;2.80;;
29200;SDS011;16244;51.956;12.980;2023-04-06T01:35:04;2.57;;;2.30;;
29200;SDS011;16244;51.956;12.980;2023-04-06T01:37:32;3.00;;;2.87;;
29200;SDS011;16244;51.956;12.980;2023-04-06T01:40:01;2.03;;;2.00;;
29200;SDS011;16244;51.956;12.980;2023-04-06T01:42:28;2.70;;;2.60;;
29200;SDS011;16244;51.956;12.980;2023-04-06T01:44:56;2.50;;;2.40;;
29200;SDS011;16244;51.956;12.980;2023-04-06T01:47:23;7.80;;;3.23;;
29200;SDS011;16244;51.956;12.980;2023-04-06T01:49:51;2.80;;;2.70;;
29200;SDS011;16244;51.956;12.980;2023-04-06T01:52:18;2.90;;;2.80;;
29200;SDS011;16244;51.956;12.980;2023-04-06T01:54:46;3.50;;;3.20;;
29200;SDS011;16244;51.956;12.980;2023-04-06T01:57:15;4.00;;;3.70;;
29200;SDS011;16244;51.956;12.980;2023-04-06T01:59:42;2.90;;;2.80;;
29200;SDS011;16244;51.956;12.980;2023-04-06T02:02:10;2.90;;;2.80;;
29200;SDS011;16244;51.956;12.980;2023-04-06T02:04:38;3.80;;;3.63;;
29200;SDS011;16244;51.956;12.980;2023-04-06T02:07:06;2.83;;;2.63;;
29200;SDS011;16244;51.956;12.980;2023-04-06T02:09:33;5.83;;;3.20;;
29200;SDS011;16244;51.956;12.980;2023-04-06T02:12:01;2.33;;;2.13;;
29200;SDS011;16244;51.956;12.980;2023-04-06T02:14:29;2.90;;;2.70;;
29200;SDS011;16244;51.956;12.980;2023-04-06T02:16:57;4.73;;;2.97;;
29200;SDS011;16244;51.956;12.980;2023-04-06T02:19:25;4.73;;;3.03;;
29200;SDS011;16244;51.956;12.980;2023-04-06T02:21:52;2.60;;;2.50;;
29200;SDS011;16244;51.956;12.980;2023-04-06T02:24:20;6.67;;;2.67;;
29200;SDS011;16244;51.956;12.980;2023-04-06T02:26:47;5.23;;;2.60;;
29200;SDS011;16244;51.956;12.980;2023-04-06T02:29:15;3.00;;;2.80;;
29200;SDS011;16244;51.956;12.980;2023-04-06T02:31:43;2.67;;;2.47;;
29200;SDS011;16244;51.956;12.980;2023-04-06T02:34:11;2.13;;;2.13;;
29200;SDS011;16244;51.956;12.980;2023-04-06T02:36:43;1.83;;;1.80;;
29200;SDS011;16244;51.956;12.980;2023-04-06T02:39:11;2.50;;;2.40;;
29200;SDS011;16244;51.956;12.980;2023-04-06T02:41:39;2.80;;;2.70;;
29200;SDS011;16244;51.956;12.980;2023-04-06T02:44:06;3.07;;;2.97;;
29200;SDS011;16244;51.956;12.980;2023-04-06T02:46:35;3.93;;;2.83;;
29200;SDS011;16244;51.956;12.980;2023-04-06T02:49:04;3.30;;;3.20;;
29200;SDS011;16244;51.956;12.980;2023-04-06T02:51:32;2.40;;;2.20;;
29200;SDS011;16244;51.956;12.980;2023-04-06T02:53:59;10.43;;;2.90;;
29200;SDS011;16244;51.956;12.980;2023-04-06T02:56:27;7.80;;;3.00;;
29200;SDS011;16244;51.956;12.980;2023-04-06T02:58:54;2.80;;;2.30;;
29200;SDS011;16244;51.956;12.980;2023-04-06T03:01:21;2.87;;;2.67;;
29200;SDS011;16244;51.956;12.980;2023-04-06T03:03:49;2.97;;;2.83;;
29200;SDS011;16244;51.956;12.980;2023-04-06T03:06:17;3.10;;;3.00;;
29200;SDS011;16244;51.956;12.980;2023-04-06T03:08:45;2.87;;;2.77;;
29200;SDS011;16244;51.956;12.980;2023-04-06T03:11:13;2.40;;;2.40;;
29200;SDS011;16244;51.956;12.980;2023-04-06T03:13:40;2.80;;;2.80;;
29200;SDS011;16244;51.956;12.980;2023-04-06T03:16:07;3.53;;;3.23;;
29200;SDS011;16244;51.956;12.980;2023-04-06T03:18:35;1.97;;;1.97;;
29200;SDS011;16244;51.956;12.980;2023-04-06T03:21:02;2.57;;;2.47;;
29200;SDS011;16244;51.956;12.980;2023-04-06T03:23:31;2.53;;;2.43;;
29200;SDS011;16244;51.956;12.980;2023-04-06T03:25:58;2.77;;;2.67;;
29200;SDS011;16244;51.956;12.980;2023-04-06T03:28:26;2.70;;;2.70;;
29200;SDS011;16244;51.956;12.980;2023-04-06T03:30:54;3.00;;;2.87;;
29200;SDS011;16244;51.956;12.980;2023-04-06T03:33:21;3.10;;;2.97;;
29200;SDS011;16244;51.956;12.980;2023-04-06T03:35:49;3.03;;;2.80;;
29200;SDS011;16244;51.956;12.980;2023-04-06T03:38:16;3.17;;;2.93;;
29200;SDS011;16244;51.956;12.980;2023-04-06T03:40:45;2.90;;;2.90;;
29200;SDS011;16244;51.956;12.980;2023-04-06T03:43:12;2.97;;;2.77;;
29200;SDS011;16244;51.956;12.980;2023-04-06T03:45:40;3.03;;;2.93;;
29200;SDS011;16244;51.956;12.980;2023-04-06T03:48:07;2.50;;;2.50;;
29200;SDS011;16244;51.956;12.980;2023-04-06T03:50:35;2.53;;;2.47;;
29200;SDS011;16244;51.956;12.980;2023-04-06T03:53:02;2.77;;;2.67;;
29200;SDS011;16244;51.956;12.980;2023-04-06T03:55:29;2.97;;;2.87;;
29200;SDS011;16244;51.956;12.980;2023-04-06T03:57:58;2.40;;;2.30;;
29200;SDS011;16244;51.956;12.980;2023-04-06T04:00:26;4.33;;;2.70;;
29200;SDS011;16244;51.956;12.980;2023-04-06T04:02:54;3.13;;;2.60;;
29200;SDS011;16244;51.956;12.980;2023-04-06T04:05:21;3.00;;;2.90;;
29200;SDS011;16244;51.956;12.980;2023-04-06T04:07:50;3.43;;;3.00;;
29200;SDS011;16244;51.956;12.980;2023-04-06T04:10:18;2.57;;;2.47;;
29200;SDS011;16244;51.956;12.980;2023-04-06T04:12:45;3.80;;;3.33;;
29200;SDS011;16244;51.956;12.980;2023-04-06T04:15:15;2.87;;;2.63;;
29200;SDS011;16244;51.956;12.980;2023-04-06T04:17:42;3.33;;;3.23;;
29200;SDS011;16244;51.956;12.980;2023-04-06T04:20:12;4.20;;;2.90;;
29200;SDS011;16244;51.956;12.980;2023-04-06T04:22:40;3.70;;;3.53;;
29200;SDS011;16244;51.956;12.980;2023-04-06T04:25:08;3.33;;;3.17;;
29200;SDS011;16244;51.956;12.980;2023-04-06T04:27:35;2.97;;;2.80;;
29200;SDS011;16244;51.956;12.980;2023-04-06T04:30:03;5.83;;;3.80;;
29200;SDS011;16244;51.956;12.980;2023-04-06T04:32:33;2.70;;;2.50;;
29200;SDS011;16244;51.956;12.980;2023-04-06T04:35:01;4.90;;;2.57;;
29200;SDS011;16244;51.956;12.980;2023-04-06T04:37:29;5.50;;;2.97;;
29200;SDS011;16244;51.956;12.980;2023-04-06T04:39:56;5.50;;;2.93;;
29200;SDS011;16244;51.956;12.980;2023-04-06T04:42:23;3.70;;;3.00;;
29200;SDS011;16244;51.956;12.980;2023-04-06T04:44:51;3.97;;;3.70;;
29200;SDS011;16244;51.956;12.980;2023-04-06T04:47:18;7.23;;;3.77;;
29200;SDS011;16244;51.956;12.980;2023-04-06T04:49:47;14.30;;;4.37;;
29200;SDS011;16244;51.956;12.980;2023-04-06T04:52:14;3.33;;;3.10;;
29200;SDS011;16244;51.956;12.980;2023-04-06T04:54:42;7.20;;;3.23;;
29200;SDS011;16244;51.956;12.980;2023-04-06T04:57:10;3.40;;;3.10;;
29200;SDS011;16244;51.956;12.980;2023-04-06T04:59:37;4.47;;;4.10;;
29200;SDS011;16244;51.956;12.980;2023-04-06T05:02:05;4.30;;;4.00;;
29200;SDS011;16244;51.956;12.980;2023-04-06T05:04:32;5.30;;;3.87;;
29200;SDS011;16244;51.956;12.980;2023-04-06T05:07:05;5.10;;;3.33;;
29200;SDS011;16244;51.956;12.980;2023-04-06T05:09:33;4.70;;;4.30;;
29200;SDS011;16244;51.956;12.980;2023-04-06T05:12:01;3.30;;;3.10;;
29200;SDS011;16244;51.956;12.980;2023-04-06T05:14:29;4.90;;;4.50;;
29200;SDS011;16244;51.956;12.980;2023-04-06T05:16:56;4.40;;;4.10;;
29200;SDS011;16244;51.956;12.980;2023-04-06T05:19:24;3.60;;;3.50;;
29200;SDS011;16244;51.956;12.980;2023-04-06T05:21:51;7.37;;;4.77;;
29200;SDS011;16244;51.956;12.980;2023-04-06T05:24:20;5.20;;;4.73;;
29200;SDS011;16244;51.956;12.980;2023-04-06T05:26:47;4.80;;;4.40;;
29200;SDS011;16244;51.956;12.980;2023-04-06T05:29:15;6.63;;;5.40;;
29200;SDS011;16244;51.956;12.980;2023-04-06T05:31:43;12.77;;;7.10;;
29200;SDS011;16244;51.956;12.980;2023-04-06T05:34:11;21.00;;;8.87;;
29200;SDS011;16244;51.956;12.980;2023-04-06T05:36:39;15.70;;;10.50;;
29200;SDS011;16244;51.956;12.980;2023-04-06T05:39:07;22.07;;;13.23;;
29200;SDS011;16244;51.956;12.980;2023-04-06T05:41:35;28.30;;;14.67;;
29200;SDS011;16244;51.956;12.980;2023-04-06T05:44:03;28.77;;;13.30;;
29200;SDS011;16244;51.956;12.980;2023-04-06T05:46:30;12.00;;;8.70;;
29200;SDS011;16244;51.956;12.980;2023-04-06T05:48:58;8.50;;;6.63;;
29200;SDS011;16244;51.956;12.980;2023-04-06T05:51:25;4.80;;;4.30;;
29200;SDS011;16244;51.956;12.980;2023-04-06T05:53:53;8.93;;;4.53;;
29200;SDS011;16244;51.956;12.980;2023-04-06T05:56:20;5.37;;;4.70;;
29200;SDS011;16244;51.956;12.980;2023-04-06T05:58:50;7.47;;;4.70;;
29200;SDS011;16244;51.956;12.980;2023-04-06T06:01:18;4.17;;;3.87;;
29200;SDS011;16244;51.956;12.980;2023-04-06T06:03:45;5.97;;;4.13;;
29200;SDS011;16244;51.956;12.980;2023-04-06T06:06:13;4.87;;;4.47;;
29200;SDS011;16244;51.956;12.980;2023-04-06T06:08:40;5.20;;;5.00;;
29200;SDS011;16244;51.956;12.980;2023-04-06T06:11:08;5.50;;;5.00;;
29200;SDS011;16244;51.956;12.980;2023-04-06T06:13:35;6.07;;;5.50;;
29200;SDS011;16244;51.956;12.980;2023-04-06T06:16:04;5.40;;;4.90;;
29200;SDS011;16244;51.956;12.980;2023-04-06T06:18:32;5.33;;;3.83;;
29200;SDS011;16244;51.956;12.980;2023-04-06T06:20:59;7.50;;;4.70;;
29200;SDS011;16244;51.956;12.980;2023-04-06T06:23:27;5.40;;;4.10;;
29200;SDS011;16244;51.956;12.980;2023-04-06T06:25:54;6.53;;;5.40;;
29200;SDS011;16244;51.956;12.980;2023-04-06T06:28:23;4.77;;;4.37;;
29200;SDS011;16244;51.956;12.980;2023-04-06T06:30:52;4.93;;;4.60;;
29200;SDS011;16244;51.956;12.980;2023-04-06T06:33:21;4.97;;;4.67;;
29200;SDS011;16244;51.956;12.980;2023-04-06T06:35:48;5.70;;;5.00;;
29200;SDS011;16244;51.956;12.980;2023-04-06T06:38:16;6.87;;;4.77;;
29200;SDS011;16244;51.956;12.980;2023-04-06T06:40:44;4.87;;;4.37;;
29200;SDS011;16244;51.956;12.980;2023-04-06T06:43:12;4.40;;;4.07;;
29200;SDS011;16244;51.956;12.980;2023-04-06T06:45:40;5.17;;;4.17;;
29200;SDS011;16244;51.956;12.980;2023-04-06T06:48:08;8.97;;;4.73;;
29200;SDS011;16244;51.956;12.980;2023-04-06T06:50:37;6.53;;;4.13;;
29200;SDS011;16244;51.956;12.980;2023-04-06T06:53:04;4.80;;;4.50;;
29200;SDS011;16244;51.956;12.980;2023-04-06T06:55:31;8.53;;;5.43;;
29200;SDS011;16244;51.956;12.980;2023-04-06T06:57:59;4.30;;;4.10;;
29200;SDS011;16244;51.956;12.980;2023-04-06T07:00:26;5.60;;;4.60;;
29200;SDS011;16244;51.956;12.980;2023-04-06T07:02:54;4.30;;;4.10;;
29200;SDS011;16244;51.956;12.980;2023-04-06T07:05:21;7.93;;;4.30;;
29200;SDS011;16244;51.956;12.980;2023-04-06T07:07:50;5.03;;;4.53;;
29200;SDS011;16244;51.956;12.980;2023-04-06T07:10:17;7.03;;;3.90;;
29200;SDS011;16244;51.956;12.980;2023-04-06T07:12:45;10.03;;;3.70;;
29200;SDS011;16244;51.956;12.980;2023-04-06T07:15:12;5.60;;;3.93;;
29200;SDS011;16244;51.956;12.980;2023-04-06T07:17:40;4.10;;;3.70;;
29200;SDS011;16244;51.956;12.980;2023-04-06T07:20:09;4.47;;;4.17;;
29200;SDS011;16244;51.956;12.980;2023-04-06T07:22:37;6.67;;;4.83;;
29200;SDS011;16244;51.956;12.980;2023-04-06T07:25:07;4.27;;;4.17;;
29200;SDS011;16244;51.956;12.980;2023-04-06T07:27:34;7.70;;;5.00;;
29200;SDS011;16244;51.956;12.980;2023-04-06T07:30:02;4.53;;;4.23;;
29200;SDS011;16244;51.956;12.980;2023-04-06T07:32:30;4.90;;;4.50;;
29200;SDS011;16244;51.956;12.980;2023-04-06T07:34:57;4.77;;;4.47;;
29200;SDS011;16244;51.956;12.980;2023-04-06T07:37:25;7.73;;;4.57;;
29200;SDS011;16244;51.956;12.980;2023-04-06T07:39:52;4.17;;;3.97;;
29200;SDS011;16244;51.956;12.980;2023-04-06T07:42:21;4.90;;;4.57;;
29200;SDS011;16244;51.956;12.980;2023-04-06T07:44:48;5.90;;;4.13;;
29200;SDS011;16244;51.956;12.980;2023-04-06T07:47:16;7.23;;;5.57;;
29200;SDS011;16244;51.956;12.980;2023-04-06T07:49:43;6.13;;;4.80;;
29200;SDS011;16244;51.956;12.980;2023-04-06T07:52:11;4.83;;;4.53;;
29200;SDS011;16244;51.956;12.980;2023-04-06T07:54:38;7.53;;;5.63;;
29200;SDS011;16244;51.956;12.980;2023-04-06T07:57:07;5.90;;;5.50;;
29200;SDS011;16244;51.956;12.980;2023-04-06T07:59:35;4.97;;;4.53;;
29200;SDS011;16244;51.956;12.980;2023-04-06T08:02:03;4.20;;;4.00;;
29200;SDS011;16244;51.956;12.980;2023-04-06T08:04:31;7.80;;;5.13;;
29200;SDS011;16244;51.956;12.980;2023-04-06T08:06:58;5.13;;;4.60;;
29200;SDS011;16244;51.956;12.980;2023-04-06T08:09:25;4.47;;;4.13;;
29200;SDS011;16244;51.956;12.980;2023-04-06T08:11:53;6.53;;;4.50;;
29200;SDS011;16244;51.956;12.980;2023-04-06T08:14:20;5.47;;;4.33;;
29200;SDS011;16244;51.956;12.980;2023-04-06T08:16:49;4.27;;;3.93;;
29200;SDS011;16244;51.956;12.980;2023-04-06T08:19:17;4.73;;;4.33;;
29200;SDS011;16244;51.956;12.980;2023-04-06T08:21:44;3.93;;;3.57;;
29200;SDS011;16244;51.956;12.980;2023-04-06T08:24:12;4.93;;;4.57;;
29200;SDS011;16244;51.956;12.980;2023-04-06T08:26:40;4.70;;;4.40;;
29200;SDS011;16244;51.956;12.980;2023-04-06T08:29:08;3.70;;;3.60;;
29200;SDS011;16244;51.956;12.980;2023-04-06T08:31:35;4.53;;;3.37;;
29200;SDS011;16244;51.956;12.980;2023-04-06T08:34:04;3.00;;;2.90;;
29200;SDS011;16244;51.956;12.980;2023-04-06T08:36:32;3.70;;;3.50;;
29200;SDS011;16244;51.956;12.980;2023-04-06T08:39:00;4.20;;;4.00;;
29200;SDS011;16244;51.956;12.980;2023-04-06T08:41:28;3.50;;;3.37;;
29200;SDS011;16244;51.956;12.980;2023-04-06T08:43:56;5.90;;;4.57;;
29200;SDS011;16244;51.956;12.980;2023-04-06T08:46:25;3.70;;;3.47;;
29200;SDS011;16244;51.956;12.980;2023-04-06T08:48:56;3.47;;;3.13;;
29200;SDS011;16244;51.956;12.980;2023-04-06T08:51:26;3.60;;;3.40;;
29200;SDS011;16244;51.956;12.980;2023-04-06T08:53:55;2.90;;;2.80;;
29200;SDS011;16244;51.956;12.980;2023-04-06T08:56:24;5.27;;;3.50;;
29200;SDS011;16244;51.956;12.980;2023-04-06T08:58:52;4.20;;;3.43;;
29200;SDS011;16244;51.956;12.980;2023-04-06T09:01:22;5.03;;;3.93;;
29200;SDS011;16244;51.956;12.980;2023-04-06T09:03:54;4.23;;;3.93;;
29200;SDS011;16244;51.956;12.980;2023-04-06T09:06:24;4.43;;;3.83;;
29200;SDS011;16244;51.956;12.980;2023-04-06T09:08:53;4.17;;;3.87;;
29200;SDS011;16244;51.956;12.980;2023-04-06T09:11:22;3.70;;;3.50;;
29200;SDS011;16244;51.956;12.980;2023-04-06T09:13:51;4.53;;;4.00;;
29200;SDS011;16244;51.956;12.980;2023-04-06T09:16:20;3.50;;;3.40;;
29200;SDS011;16244;51.956;12.980;2023-04-06T09:18:49;3.57;;;3.37;;
29200;SDS011;16244;51.956;12.980;2023-04-06T09:21:17;4.00;;;3.70;;
29200;SDS011;16244;51.956;12.980;2023-04-06T09:23:46;4.13;;;3.73;;
29200;SDS011;16244;51.956;12.980;2023-04-06T09:26:14;3.60;;;3.33;;
29200;SDS011;16244;51.956;12.980;2023-04-06T09:28:43;4.07;;;3.53;;
29200;SDS011;16244;51.956;12.980;2023-04-06T09:31:12;3.23;;;3.13;;
29200;SDS011;16244;51.956;12.980;2023-04-06T09:33:40;3.67;;;3.43;;
29200;SDS011;16244;51.956;12.980;2023-04-06T09:36:09;4.17;;;3.97;;
29200;SDS011;16244;51.956;12.980;2023-04-06T09:38:38;3.33;;;3.20;;
29200;SDS011;16244;51.956;12.980;2023-04-06T09:41:21;3.27;;;3.17;;
29200;SDS011;16244;51.956;12.980;2023-04-06T09:43:50;3.63;;;3.43;;
29200;SDS011;16244;51.956;12.980;2023-04-06T09:46:19;3.97;;;3.40;;
29200;SDS011;16244;51.956;12.980;2023-04-06T09:48:48;3.40;;;3.20;;
29200;SDS011;16244;51.956;12.980;2023-04-06T09:51:17;3.30;;;3.20;;
29200;SDS011;16244;51.956;12.980;2023-04-06T09:53:47;4.40;;;4.20;;
29200;SDS011;16244;51.956;12.980;2023-04-06T09:56:22;5.10;;;4.80;;
29200;SDS011;16244;51.956;12.980;2023-04-06T09:58:55;3.43;;;3.13;;
29200;SDS011;16244;51.956;12.980;2023-04-06T10:01:28;4.70;;;4.40;;
29200;SDS011;16244;51.956;12.980;2023-04-06T10:04:00;6.17;;;3.80;;
29200;SDS011;16244;51.956;12.980;2023-04-06T10:06:35;3.30;;;3.10;;
29200;SDS011;16244;51.956;12.980;2023-04-06T10:09:04;3.20;;;3.10;;
29200;SDS011;16244;51.956;12.980;2023-04-06T10:11:35;5.27;;;4.00;;
29200;SDS011;16244;51.956;12.980;2023-04-06T10:14:03;3.83;;;3.63;;
29200;SDS011;16244;51.956;12.980;2023-04-06T10:16:30;3.47;;;2.80;;
29200;SDS011;16244;51.956;12.980;2023-04-06T10:18:59;3.50;;;3.40;;
29200;SDS011;16244;51.956;12.980;2023-04-06T10:21:33;3.73;;;3.63;;
29200;SDS011;16244;51.956;12.980;2023-04-06T10:24:06;3.40;;;3.30;;
29200;SDS011;16244;51.956;12.980;2023-04-06T10:26:38;3.50;;;3.30;;
29200;SDS011;16244;51.956;12.980;2023-04-06T10:29:05;5.80;;;2.90;;
29200;SDS011;16244;51.956;12.980;2023-04-06T10:31:39;4.00;;;3.30;;
29200;SDS011;16244;51.956;12.980;2023-04-06T10:34:08;3.80;;;3.60;;
29200;SDS011;16244;51.956;12.980;2023-04-06T10:36:36;3.90;;;3.70;;
29200;SDS011;16244;51.956;12.980;2023-04-06T10:39:04;3.60;;;3.40;;
29200;SDS011;16244;51.956;12.980;2023-04-06T10:41:33;4.40;;;3.73;;
29200;SDS011;16244;51.956;12.980;2023-04-06T10:44:02;4.20;;;3.90;;
29200;SDS011;16244;51.956;12.980;2023-04-06T10:46:30;4.43;;;4.03;;
29200;SDS011;16244;51.956;12.980;2023-04-06T10:49:09;3.60;;;3.40;;
29200;SDS011;16244;51.956;12.980;2023-04-06T10:51:38;3.73;;;3.03;;
29200;SDS011;16244;51.956;12.980;2023-04-06T10:54:06;3.10;;;3.00;;
29200;SDS011;16244;51.956;12.980;2023-04-06T10:56:36;2.80;;;2.70;;
29200;SDS011;16244;51.956;12.980;2023-04-06T10:59:05;3.70;;;3.47;;
29200;SDS011;16244;51.956;12.980;2023-04-06T11:01:34;3.60;;;3.40;;
29200;SDS011;16244;51.956;12.980;2023-04-06T11:04:01;4.27;;;4.07;;
29200;SDS011;16244;51.956;12.980;2023-04-06T11:06:30;3.90;;;3.70;;
29200;SDS011;16244;51.956;12.980;2023-04-06T11:08:58;4.20;;;3.87;;
29200;SDS011;16244;51.956;12.980;2023-04-06T11:11:26;4.67;;;4.20;;
29200;SDS011;16244;51.956;12.980;2023-04-06T11:13:54;3.43;;;3.13;;
29200;SDS011;16244;51.956;12.980;2023-04-06T11:16:25;5.00;;;3.60;;
29200;SDS011;16244;51.956;12.980;2023-04-06T11:18:54;3.60;;;3.40;;
29200;SDS011;16244;51.956;12.980;2023-04-06T11:21:32;3.53;;;3.20;;
29200;SDS011;16244;51.956;12.980;2023-04-06T11:24:08;3.47;;;3.17;;
29200;SDS011;16244;51.956;12.980;2023-04-06T11:26:37;3.90;;;2.60;;
29200;SDS011;16244;51.956;12.980;2023-04-06T11:29:09;5.37;;;3.00;;
29200;SDS011;16244;51.956;12.980;2023-04-06T11:31:40;2.67;;;2.57;;
29200;SDS011;16244;51.956;12.980;2023-04-06T11:34:11;3.30;;;3.10;;
29200;SDS011;16244;51.956;12.980;2023-04-06T11:36:40;2.77;;;2.70;;
29200;SDS011;16244;51.956;12.980;2023-04-06T11:39:08;4.20;;;3.90;;
29200;SDS011;16244;51.956;12.980;2023-04-06T11:41:36;3.63;;;3.53;;
29200;SDS011;16244;51.956;12.980;2023-04-06T11:44:05;10.03;;;3.87;;
29200;SDS011;16244;51.956;12.980;2023-04-06T11:46:32;4.03;;;3.83;;
29200;SDS011;16244;51.956;12.980;2023-04-06T11:49:02;3.60;;;3.47;;
29200;SDS011;16244;51.956;12.980;2023-04-06T11:51:29;3.33;;;3.23;;
29200;SDS011;16244;51.956;12.980;2023-04-06T11:53:57;3.43;;;3.23;;
29200;SDS011;16244;51.956;12.980;2023-04-06T11:56:25;3.60;;;3.30;;
29200;SDS011;16244;51.956;12.980;2023-04-06T11:58:56;3.37;;;3.27;;
29200;SDS011;16244;51.956;12.980;2023-04-06T12:01:25;3.30;;;3.13;;
29200;SDS011;16244;51.956;12.980;2023-04-06T12:03:53;3.97;;;3.60;;
29200;SDS011;16244;51.956;12.980;2023-04-06T12:06:22;3.07;;;2.90;;
29200;SDS011;16244;51.956;12.980;2023-04-06T12:08:51;3.43;;;3.33;;
29200;SDS011;16244;51.956;12.980;2023-04-06T12:11:18;3.90;;;3.60;;
29200;SDS011;16244;51.956;12.980;2023-04-06T12:13:47;3.60;;;3.50;;
29200;SDS011;16244;51.956;12.980;2023-04-06T12:16:15;4.00;;;3.77;;
29200;SDS011;16244;51.956;12.980;2023-04-06T12:18:42;3.77;;;3.47;;
29200;SDS011;16244;51.956;12.980;2023-04-06T12:21:10;4.07;;;3.83;;
29200;SDS011;16244;51.956;12.980;2023-04-06T12:23:38;3.40;;;3.30;;
29200;SDS011;16244;51.956;12.980;2023-04-06T12:26:06;4.13;;;3.93;;
29200;SDS011;16244;51.956;12.980;2023-04-06T12:28:33;3.83;;;3.70;;
29200;SDS011;16244;51.956;12.980;2023-04-06T12:31:01;4.30;;;4.10;;
29200;SDS011;16244;51.956;12.980;2023-04-06T12:33:28;6.97;;;4.03;;
29200;SDS011;16244;51.956;12.980;2023-04-06T12:35:56;3.47;;;3.03;;
29200;SDS011;16244;51.956;12.980;2023-04-06T12:38:23;3.67;;;3.30;;
29200;SDS011;16244;51.956;12.980;2023-04-06T12:40:52;3.50;;;3.30;;
29200;SDS011;16244;51.956;12.980;2023-04-06T12:43:19;3.20;;;3.00;;
29200;SDS011;16244;51.956;12.980;2023-04-06T12:45:47;3.20;;;3.00;;
29200;SDS011;16244;51.956;12.980;2023-04-06T12:48:14;4.60;;;3.23;;
29200;SDS011;16244;51.956;12.980;2023-04-06T12:50:42;3.90;;;3.20;;
29200;SDS011;16244;51.956;12.980;2023-04-06T12:53:09;3.47;;;3.20;;
29200;SDS011;16244;51.956;12.980;2023-04-06T12:55:36;4.30;;;4.00;;
29200;SDS011;16244;51.956;12.980;2023-04-06T12:58:05;3.43;;;3.23;;
29200;SDS011;16244;51.956;12.980;2023-04-06T13:00:32;4.00;;;3.80;;
29200;SDS011;16244;51.956;12.980;2023-04-06T13:03:00;3.80;;;3.63;;
29200;SDS011;16244;51.956;12.980;2023-04-06T13:05:28;3.47;;;3.20;;
29200;SDS011;16244;51.956;12.980;2023-04-06T13:07:55;2.80;;;2.70;;
29200;SDS011;16244;51.956;12.980;2023-04-06T13:10:23;3.80;;;3.60;;
29200;SDS011;16244;51.956;12.980;2023-04-06T13:12:50;3.80;;;3.60;;
29200;SDS011;16244;51.956;12.980;2023-04-06T13:15:19;9.13;;;3.80;;
29200;SDS011;16244;51.956;12.980;2023-04-06T13:17:46;3.37;;;3.27;;
29200;SDS011;16244;51.956;12.980;2023-04-06T13:20:13;9.00;;;4.23;;
29200;SDS011;16244;51.956;12.980;2023-04-06T13:22:41;6.00;;;3.23;;
29200;SDS011;16244;51.956;12.980;2023-04-06T13:25:08;2.87;;;2.77;;
29200;SDS011;16244;51.956;12.980;2023-04-06T13:27:36;4.13;;;3.27;;
29200;SDS011;16244;51.956;12.980;2023-04-06T13:30:04;4.27;;;3.87;;
29200;SDS011;16244;51.956;12.980;2023-04-06T13:35:02;3.73;;;3.40;;
29200;SDS011;16244;51.956;12.980;2023-04-06T13:37:30;3.93;;;2.90;;
29200;SDS011;16244;51.956;12.980;2023-04-06T13:39:58;3.97;;;3.63;;
29200;SDS011;16244;51.956;12.980;2023-04-06T13:42:26;3.30;;;3.20;;
29200;SDS011;16244;51.956;12.980;2023-04-06T13:44:54;3.10;;;3.00;;
29200;SDS011;16244;51.956;12.980;2023-04-06T13:47:21;3.73;;;3.53;;
29200;SDS011;16244;51.956;12.980;2023-04-06T13:49:50;3.93;;;3.10;;
29200;SDS011;16244;51.956;12.980;2023-04-06T13:52:19;3.57;;;3.10;;
29200;SDS011;16244;51.956;12.980;2023-04-06T13:54:46;3.43;;;3.33;;
29200;SDS011;16244;51.956;12.980;2023-04-06T13:57:15;3.00;;;2.90;;
29200;SDS011;16244;51.956;12.980;2023-04-06T13:59:42;3.80;;;3.60;;
29200;SDS011;16244;51.956;12.980;2023-04-06T14:02:10;4.60;;;4.20;;
29200;SDS011;16244;51.956;12.980;2023-04-06T14:04:37;4.90;;;3.50;;
29200;SDS011;16244;51.956;12.980;2023-04-06T14:07:06;3.83;;;3.63;;
29200;SDS011;16244;51.956;12.980;2023-04-06T14:09:34;3.40;;;3.30;;
29200;SDS011;16244;51.956;12.980;2023-04-06T14:12:01;3.80;;;3.50;;
29200;SDS011;16244;51.956;12.980;2023-04-06T14:14:29;3.07;;;2.87;;
29200;SDS011;16244;51.956;12.980;2023-04-06T14:16:56;3.87;;;3.40;;
29200;SDS011;16244;51.956;12.980;2023-04-06T14:19:24;3.90;;;3.33;;
29200;SDS011;16244;51.956;12.980;2023-04-06T14:21:51;3.53;;;3.33;;
29200;SDS011;16244;51.956;12.980;2023-04-06T14:24:20;3.97;;;3.77;;
29200;SDS011;16244;51.956;12.980;2023-04-06T14:26:48;7.63;;;6.73;;
29200;SDS011;16244;51.956;12.980;2023-04-06T14:29:15;3.93;;;3.70;;
29200;SDS011;16244;51.956;12.980;2023-04-06T14:31:44;5.63;;;3.20;;
29200;SDS011;16244;51.956;12.980;2023-04-06T14:34:12;3.73;;;3.43;;
29200;SDS011;16244;51.956;12.980;2023-04-06T14:36:39;3.00;;;2.90;;
29200;SDS011;16244;51.956;12.980;2023-04-06T14:39:07;4.93;;;3.53;;
29200;SDS011;16244;51.956;12.980;2023-04-06T14:41:37;4.20;;;3.60;;